sensor_id;sensor_type;location;lat;lon;timestamp;P1;P2;P0
70922;PMS5003;58573;28.942;-13.688;2023-05-28T00:00:53;6;6;
70922;PMS5003;58573;28.942;-13.688;2023-05-28T00:03:18;6;6;
70922;PMS5003;58573;28.942;-13.688;2023-05-28T00:05:43;5;4;
70922;PMS5003;58573;28.942;-13.688;2023-05-28T00:08:09;6;4;
70922;PMS5003;58573;28.942;-13.688;2023-05-28T00:10:34;5;5;
70922;PMS5003;58573;28.942;-13.688;2023-05-28T00:13:00;7;5;
70922;PMS5003;58573;28.942;-13.688;2023-05-28T00:15:25;6;6;
70922;PMS5003;58573;28.942;-13.688;2023-05-28T00:17:51;6;6;
70922;PMS5003;58573;28.942;-13.688;2023-05-28T00:20:16;5;5;
70922;PMS5003;58573;28.942;-13.688;2023-05-28T00:22:42;6;6;
70922;PMS5003;58573;28.942;-13.688;2023-05-28T00:25:07;4;4;
70922;PMS5003;58573;28.942;-13.688;2023-05-28T00:27:33;5;5;
70922;PMS5003;58573;28.942;-13.688;2023-05-28T00:29:58;5;5;
70922;PMS5003;58573;28.942;-13.688;2023-05-28T00:32:24;7;7;
70922;PMS5003;58573;28.942;-13.688;2023-05-28T00:34:49;5;5;
70922;PMS5003;58573;28.942;-13.688;2023-05-28T00:37:15;8;7;
70922;PMS5003;58573;28.942;-13.688;2023-05-28T00:39:40;5;5;
70922;PMS5003;58573;28.942;-13.688;2023-05-28T00:42:06;7;6;
70922;PMS5003;58573;28.942;-13.688;2023-05-28T00:44:31;5;5;
70922;PMS5003;58573;28.942;-13.688;2023-05-28T00:46:57;7;7;
70922;PMS5003;58573;28.942;-13.688;2023-05-28T00:49:22;7;6;
70922;PMS5003;58573;28.942;-13.688;2023-05-28T00:51:48;5;4;
70922;PMS5003;58573;28.942;-13.688;2023-05-28T00:54:13;6;6;
70922;PMS5003;58573;28.942;-13.688;2023-05-28T00:56:39;9;6;
70922;PMS5003;58573;28.942;-13.688;2023-05-28T00:59:04;5;5;
70922;PMS5003;58573;28.942;-13.688;2023-05-28T01:01:30;7;6;
70922;PMS5003;58573;28.942;-13.688;2023-05-28T01:03:55;6;6;
70922;PMS5003;58573;28.942;-13.688;2023-05-28T01:06:21;4;4;
70922;PMS5003;58573;28.942;-13.688;2023-05-28T01:08:46;6;6;
70922;PMS5003;58573;28.942;-13.688;2023-05-28T01:11:13;6;6;
70922;PMS5003;58573;28.942;-13.688;2023-05-28T01:13:37;6;5;
70922;PMS5003;58573;28.942;-13.688;2023-05-28T01:16:03;8;7;
70922;PMS5003;58573;28.942;-13.688;2023-05-28T01:18:28;5;5;
70922;PMS5003;58573;28.942;-13.688;2023-05-28T01:20:54;7;7;
70922;PMS5003;58573;28.942;-13.688;2023-05-28T01:23:19;5;5;
70922;PMS5003;58573;28.942;-13.688;2023-05-28T01:25:45;8;6;
70922;PMS5003;58573;28.942;-13.688;2023-05-28T01:28:11;8;8;
70922;PMS5003;58573;28.942;-13.688;2023-05-28T01:30:35;6;6;
70922;PMS5003;58573;28.942;-13.688;2023-05-28T01:33:01;7;7;
70922;PMS5003;58573;28.942;-13.688;2023-05-28T01:35:26;6;6;
70922;PMS5003;58573;28.942;-13.688;2023-05-28T01:37:52;7;7;
70922;PMS5003;58573;28.942;-13.688;2023-05-28T01:40:17;10;9;
70922;PMS5003;58573;28.942;-13.688;2023-05-28T01:42:42;6;6;
70922;PMS5003;58573;28.942;-13.688;2023-05-28T01:45:09;7;6;
70922;PMS5003;58573;28.942;-13.688;2023-05-28T01:47:33;6;6;
70922;PMS5003;58573;28.942;-13.688;2023-05-28T01:49:59;9;8;
70922;PMS5003;58573;28.942;-13.688;2023-05-28T01:52:24;7;7;
70922;PMS5003;58573;28.942;-13.688;2023-05-28T01:54:50;8;7;
70922;PMS5003;58573;28.942;-13.688;2023-05-28T01:57:15;7;5;
70922;PMS5003;58573;28.942;-13.688;2023-05-28T01:59:41;6;6;
70922;PMS5003;58573;28.942;-13.688;2023-05-28T02:02:06;7;6;
70922;PMS5003;58573;28.942;-13.688;2023-05-28T02:04:32;7;7;
70922;PMS5003;58573;28.942;-13.688;2023-05-28T02:06:57;5;5;
70922;PMS5003;58573;28.942;-13.688;2023-05-28T02:09:22;8;7;
70922;PMS5003;58573;28.942;-13.688;2023-05-28T02:11:48;10;10;
70922;PMS5003;58573;28.942;-13.688;2023-05-28T02:14:14;4;4;
70922;PMS5003;58573;28.942;-13.688;2023-05-28T02:16:40;9;8;
70922;PMS5003;58573;28.942;-13.688;2023-05-28T02:19:04;9;9;
70922;PMS5003;58573;28.942;-13.688;2023-05-28T02:21:30;8;7;
70922;PMS5003;58573;28.942;-13.688;2023-05-28T02:23:55;9;8;
70922;PMS5003;58573;28.942;-13.688;2023-05-28T02:26:21;6;5;
70922;PMS5003;58573;28.942;-13.688;2023-05-28T02:28:46;7;7;
70922;PMS5003;58573;28.942;-13.688;2023-05-28T02:31:12;8;7;
70922;PMS5003;58573;28.942;-13.688;2023-05-28T02:33:37;8;8;
70922;PMS5003;58573;28.942;-13.688;2023-05-28T02:36:03;5;5;
70922;PMS5003;58573;28.942;-13.688;2023-05-28T02:38:28;6;6;
70922;PMS5003;58573;28.942;-13.688;2023-05-28T02:40:53;5;5;
70922;PMS5003;58573;28.942;-13.688;2023-05-28T02:43:19;7;6;
70922;PMS5003;58573;28.942;-13.688;2023-05-28T02:45:44;6;6;
70922;PMS5003;58573;28.942;-13.688;2023-05-28T02:48:10;6;6;
70922;PMS5003;58573;28.942;-13.688;2023-05-28T02:50:35;4;4;
70922;PMS5003;58573;28.942;-13.688;2023-05-28T02:53:01;5;5;
70922;PMS5003;58573;28.942;-13.688;2023-05-28T02:55:26;9;9;
70922;PMS5003;58573;28.942;-13.688;2023-05-28T02:57:52;5;5;
70922;PMS5003;58573;28.942;-13.688;2023-05-28T03:00:17;4;4;
70922;PMS5003;58573;28.942;-13.688;2023-05-28T03:02:43;4;4;
70922;PMS5003;58573;28.942;-13.688;2023-05-28T03:05:08;5;5;
70922;PMS5003;58573;28.942;-13.688;2023-05-28T03:07:33;4;4;
70922;PMS5003;58573;28.942;-13.688;2023-05-28T03:09:59;6;5;
70922;PMS5003;58573;28.942;-13.688;2023-05-28T03:12:25;7;6;
70922;PMS5003;58573;28.942;-13.688;2023-05-28T03:14:50;5;4;
70922;PMS5003;58573;28.942;-13.688;2023-05-28T03:17:16;11;10;
70922;PMS5003;58573;28.942;-13.688;2023-05-28T03:19:42;5;5;
70922;PMS5003;58573;28.942;-13.688;2023-05-28T03:22:07;7;7;
70922;PMS5003;58573;28.942;-13.688;2023-05-28T03:24:33;7;7;
70922;PMS5003;58573;28.942;-13.688;2023-05-28T03:26:59;7;7;
70922;PMS5003;58573;28.942;-13.688;2023-05-28T03:29:24;7;7;
70922;PMS5003;58573;28.942;-13.688;2023-05-28T03:31:49;9;6;
70922;PMS5003;58573;28.942;-13.688;2023-05-28T03:34:15;6;6;
70922;PMS5003;58573;28.942;-13.688;2023-05-28T03:36:40;5;5;
70922;PMS5003;58573;28.942;-13.688;2023-05-28T03:39:06;8;6;
70922;PMS5003;58573;28.942;-13.688;2023-05-28T03:41:31;8;7;
70922;PMS5003;58573;28.942;-13.688;2023-05-28T03:43:56;10;9;
70922;PMS5003;58573;28.942;-13.688;2023-05-28T03:46:22;7;7;
70922;PMS5003;58573;28.942;-13.688;2023-05-28T03:48:47;7;6;
70922;PMS5003;58573;28.942;-13.688;2023-05-28T03:51:13;10;7;
70922;PMS5003;58573;28.942;-13.688;2023-05-28T03:53:39;7;7;
70922;PMS5003;58573;28.942;-13.688;2023-05-28T03:56:04;7;7;
70922;PMS5003;58573;28.942;-13.688;2023-05-28T03:58:30;9;9;
70922;PMS5003;58573;28.942;-13.688;2023-05-28T04:00:56;6;6;
70922;PMS5003;58573;28.942;-13.688;2023-05-28T04:03:21;8;8;
70922;PMS5003;58573;28.942;-13.688;2023-05-28T04:05:47;7;6;
70922;PMS5003;58573;28.942;-13.688;2023-05-28T04:08:12;7;7;
70922;PMS5003;58573;28.942;-13.688;2023-05-28T04:10:37;6;5;
70922;PMS5003;58573;28.942;-13.688;2023-05-28T04:13:03;7;7;
70922;PMS5003;58573;28.942;-13.688;2023-05-28T04:15:29;7;6;
70922;PMS5003;58573;28.942;-13.688;2023-05-28T04:17:54;6;6;
70922;PMS5003;58573;28.942;-13.688;2023-05-28T04:20:19;6;6;
70922;PMS5003;58573;28.942;-13.688;2023-05-28T04:22:45;6;6;
70922;PMS5003;58573;28.942;-13.688;2023-05-28T04:25:10;9;8;
70922;PMS5003;58573;28.942;-13.688;2023-05-28T04:27:36;8;5;
70922;PMS5003;58573;28.942;-13.688;2023-05-28T04:30:01;6;4;
70922;PMS5003;58573;28.942;-13.688;2023-05-28T04:32:27;6;5;
70922;PMS5003;58573;28.942;-13.688;2023-05-28T04:34:52;12;8;
70922;PMS5003;58573;28.942;-13.688;2023-05-28T04:37:18;8;8;
70922;PMS5003;58573;28.942;-13.688;2023-05-28T04:39:44;11;10;
70922;PMS5003;58573;28.942;-13.688;2023-05-28T04:42:09;7;6;
70922;PMS5003;58573;28.942;-13.688;2023-05-28T04:44:34;7;7;
70922;PMS5003;58573;28.942;-13.688;2023-05-28T04:47:00;5;5;
70922;PMS5003;58573;28.942;-13.688;2023-05-28T04:49:25;6;5;
70922;PMS5003;58573;28.942;-13.688;2023-05-28T04:51:51;9;8;
70922;PMS5003;58573;28.942;-13.688;2023-05-28T04:54:16;5;5;
70922;PMS5003;58573;28.942;-13.688;2023-05-28T04:56:42;10;10;
70922;PMS5003;58573;28.942;-13.688;2023-05-28T04:59:07;6;5;
70922;PMS5003;58573;28.942;-13.688;2023-05-28T05:01:33;7;6;
70922;PMS5003;58573;28.942;-13.688;2023-05-28T05:03:58;10;9;
70922;PMS5003;58573;28.942;-13.688;2023-05-28T05:06:24;6;6;
70922;PMS5003;58573;28.942;-13.688;2023-05-28T05:08:49;8;7;
70922;PMS5003;58573;28.942;-13.688;2023-05-28T05:11:15;8;7;
70922;PMS5003;58573;28.942;-13.688;2023-05-28T05:13:40;11;9;
70922;PMS5003;58573;28.942;-13.688;2023-05-28T05:16:06;8;7;
70922;PMS5003;58573;28.942;-13.688;2023-05-28T05:18:32;8;7;
70922;PMS5003;58573;28.942;-13.688;2023-05-28T05:20:57;7;7;
70922;PMS5003;58573;28.942;-13.688;2023-05-28T05:23:23;8;7;
70922;PMS5003;58573;28.942;-13.688;2023-05-28T05:25:48;4;4;
70922;PMS5003;58573;28.942;-13.688;2023-05-28T05:28:14;6;6;
70922;PMS5003;58573;28.942;-13.688;2023-05-28T05:30:39;7;7;
70922;PMS5003;58573;28.942;-13.688;2023-05-28T05:33:05;6;6;
70922;PMS5003;58573;28.942;-13.688;2023-05-28T05:35:30;9;7;
70922;PMS5003;58573;28.942;-13.688;2023-05-28T05:37:56;10;8;
70922;PMS5003;58573;28.942;-13.688;2023-05-28T05:40:21;6;6;
70922;PMS5003;58573;28.942;-13.688;2023-05-28T05:42:47;7;7;
70922;PMS5003;58573;28.942;-13.688;2023-05-28T05:45:13;6;6;
70922;PMS5003;58573;28.942;-13.688;2023-05-28T05:47:38;10;9;
70922;PMS5003;58573;28.942;-13.688;2023-05-28T05:50:04;7;7;
70922;PMS5003;58573;28.942;-13.688;2023-05-28T05:52:29;6;6;
70922;PMS5003;58573;28.942;-13.688;2023-05-28T05:54:54;7;6;
70922;PMS5003;58573;28.942;-13.688;2023-05-28T05:57:20;9;7;
70922;PMS5003;58573;28.942;-13.688;2023-05-28T05:59:46;8;8;
70922;PMS5003;58573;28.942;-13.688;2023-05-28T06:02:11;8;8;
70922;PMS5003;58573;28.942;-13.688;2023-05-28T06:04:37;4;4;
70922;PMS5003;58573;28.942;-13.688;2023-05-28T06:07:02;8;6;
70922;PMS5003;58573;28.942;-13.688;2023-05-28T06:09:28;7;7;
70922;PMS5003;58573;28.942;-13.688;2023-05-28T06:11:53;9;7;
70922;PMS5003;58573;28.942;-13.688;2023-05-28T06:14:19;8;8;
70922;PMS5003;58573;28.942;-13.688;2023-05-28T06:16:45;7;6;
70922;PMS5003;58573;28.942;-13.688;2023-05-28T06:19:10;8;7;
70922;PMS5003;58573;28.942;-13.688;2023-05-28T06:21:36;7;6;
70922;PMS5003;58573;28.942;-13.688;2023-05-28T06:24:01;6;6;
70922;PMS5003;58573;28.942;-13.688;2023-05-28T06:26:27;7;6;
70922;PMS5003;58573;28.942;-13.688;2023-05-28T06:28:52;7;6;
70922;PMS5003;58573;28.942;-13.688;2023-05-28T06:31:18;6;6;
70922;PMS5003;58573;28.942;-13.688;2023-05-28T06:33:44;6;6;
70922;PMS5003;58573;28.942;-13.688;2023-05-28T06:36:09;6;6;
70922;PMS5003;58573;28.942;-13.688;2023-05-28T06:38:35;6;6;
70922;PMS5003;58573;28.942;-13.688;2023-05-28T06:41:00;5;5;
70922;PMS5003;58573;28.942;-13.688;2023-05-28T06:43:26;6;5;
70922;PMS5003;58573;28.942;-13.688;2023-05-28T06:45:51;6;5;
70922;PMS5003;58573;28.942;-13.688;2023-05-28T06:48:16;6;6;
70922;PMS5003;58573;28.942;-13.688;2023-05-28T06:50:42;7;6;
70922;PMS5003;58573;28.942;-13.688;2023-05-28T06:53:07;7;6;
70922;PMS5003;58573;28.942;-13.688;2023-05-28T06:55:33;5;5;
70922;PMS5003;58573;28.942;-13.688;2023-05-28T06:57:58;7;6;
70922;PMS5003;58573;28.942;-13.688;2023-05-28T07:00:24;6;6;
70922;PMS5003;58573;28.942;-13.688;2023-05-28T07:02:49;3;3;
70922;PMS5003;58573;28.942;-13.688;2023-05-28T07:05:15;7;5;
70922;PMS5003;58573;28.942;-13.688;2023-05-28T07:07:40;5;4;
70922;PMS5003;58573;28.942;-13.688;2023-05-28T07:10:06;6;5;
70922;PMS5003;58573;28.942;-13.688;2023-05-28T07:12:31;6;6;
70922;PMS5003;58573;28.942;-13.688;2023-05-28T07:14:57;4;4;
70922;PMS5003;58573;28.942;-13.688;2023-05-28T07:17:22;6;6;
70922;PMS5003;58573;28.942;-13.688;2023-05-28T07:19:48;5;5;
70922;PMS5003;58573;28.942;-13.688;2023-05-28T07:22:13;7;6;
70922;PMS5003;58573;28.942;-13.688;2023-05-28T07:24:38;4;4;
70922;PMS5003;58573;28.942;-13.688;2023-05-28T07:27:04;4;4;
70922;PMS5003;58573;28.942;-13.688;2023-05-28T07:29:29;7;7;
70922;PMS5003;58573;28.942;-13.688;2023-05-28T07:31:54;5;5;
70922;PMS5003;58573;28.942;-13.688;2023-05-28T07:34:19;4;4;
70922;PMS5003;58573;28.942;-13.688;2023-05-28T07:36:44;4;4;
70922;PMS5003;58573;28.942;-13.688;2023-05-28T07:39:09;6;6;
70922;PMS5003;58573;28.942;-13.688;2023-05-28T07:41:35;6;5;
70922;PMS5003;58573;28.942;-13.688;2023-05-28T07:44:00;5;5;
70922;PMS5003;58573;28.942;-13.688;2023-05-28T07:46:26;8;7;
70922;PMS5003;58573;28.942;-13.688;2023-05-28T07:48:51;4;4;
70922;PMS5003;58573;28.942;-13.688;2023-05-28T07:51:17;4;4;
70922;PMS5003;58573;28.942;-13.688;2023-05-28T07:53:42;6;6;
70922;PMS5003;58573;28.942;-13.688;2023-05-28T07:56:08;5;4;
70922;PMS5003;58573;28.942;-13.688;2023-05-28T07:58:33;8;7;
70922;PMS5003;58573;28.942;-13.688;2023-05-28T08:00:58;3;3;
70922;PMS5003;58573;28.942;-13.688;2023-05-28T08:03:24;4;4;
70922;PMS5003;58573;28.942;-13.688;2023-05-28T08:05:49;6;5;
70922;PMS5003;58573;28.942;-13.688;2023-05-28T08:08:14;5;5;
70922;PMS5003;58573;28.942;-13.688;2023-05-28T08:10:40;5;5;
70922;PMS5003;58573;28.942;-13.688;2023-05-28T08:13:05;6;5;
70922;PMS5003;58573;28.942;-13.688;2023-05-28T08:15:30;5;3;
70922;PMS5003;58573;28.942;-13.688;2023-05-28T08:17:56;6;6;
70922;PMS5003;58573;28.942;-13.688;2023-05-28T08:20:21;6;5;
70922;PMS5003;58573;28.942;-13.688;2023-05-28T08:22:47;4;4;
70922;PMS5003;58573;28.942;-13.688;2023-05-28T08:25:12;4;4;
70922;PMS5003;58573;28.942;-13.688;2023-05-28T08:27:37;5;4;
70922;PMS5003;58573;28.942;-13.688;2023-05-28T08:30:03;5;5;
70922;PMS5003;58573;28.942;-13.688;2023-05-28T08:32:28;4;3;
70922;PMS5003;58573;28.942;-13.688;2023-05-28T08:34:53;3;3;
70922;PMS5003;58573;28.942;-13.688;2023-05-28T08:37:19;6;4;
70922;PMS5003;58573;28.942;-13.688;2023-05-28T08:39:44;3;3;
70922;PMS5003;58573;28.942;-13.688;2023-05-28T08:42:09;4;4;
70922;PMS5003;58573;28.942;-13.688;2023-05-28T08:44:35;4;4;
70922;PMS5003;58573;28.942;-13.688;2023-05-28T08:47:00;6;5;
70922;PMS5003;58573;28.942;-13.688;2023-05-28T08:49:26;5;5;
70922;PMS5003;58573;28.942;-13.688;2023-05-28T08:51:51;5;4;
70922;PMS5003;58573;28.942;-13.688;2023-05-28T08:54:16;4;4;
70922;PMS5003;58573;28.942;-13.688;2023-05-28T08:56:41;3;3;
70922;PMS5003;58573;28.942;-13.688;2023-05-28T08:59:07;5;5;
70922;PMS5003;58573;28.942;-13.688;2023-05-28T09:01:32;4;3;
70922;PMS5003;58573;28.942;-13.688;2023-05-28T09:03:57;6;5;
70922;PMS5003;58573;28.942;-13.688;2023-05-28T09:06:23;4;4;
70922;PMS5003;58573;28.942;-13.688;2023-05-28T09:08:48;4;4;
70922;PMS5003;58573;28.942;-13.688;2023-05-28T09:11:14;3;3;
70922;PMS5003;58573;28.942;-13.688;2023-05-28T09:13:40;6;4;
70922;PMS5003;58573;28.942;-13.688;2023-05-28T09:16:04;5;5;
70922;PMS5003;58573;28.942;-13.688;2023-05-28T09:18:29;7;4;
70922;PMS5003;58573;28.942;-13.688;2023-05-28T09:20:59;4;3;
70922;PMS5003;58573;28.942;-13.688;2023-05-28T09:23:20;6;6;
70922;PMS5003;58573;28.942;-13.688;2023-05-28T09:25:45;5;5;
70922;PMS5003;58573;28.942;-13.688;2023-05-28T09:28:11;3;3;
70922;PMS5003;58573;28.942;-13.688;2023-05-28T09:30:36;4;4;
70922;PMS5003;58573;28.942;-13.688;2023-05-28T09:33:01;4;3;
70922;PMS5003;58573;28.942;-13.688;2023-05-28T09:35:26;6;5;
70922;PMS5003;58573;28.942;-13.688;2023-05-28T09:40:17;3;3;
70922;PMS5003;58573;28.942;-13.688;2023-05-28T09:42:42;3;3;
70922;PMS5003;58573;28.942;-13.688;2023-05-28T09:45:08;4;4;
70922;PMS5003;58573;28.942;-13.688;2023-05-28T09:47:33;6;5;
70922;PMS5003;58573;28.942;-13.688;2023-05-28T09:49:58;3;3;
70922;PMS5003;58573;28.942;-13.688;2023-05-28T09:52:23;4;4;
70922;PMS5003;58573;28.942;-13.688;2023-05-28T09:54:49;5;5;
70922;PMS5003;58573;28.942;-13.688;2023-05-28T09:57:14;4;4;
70922;PMS5003;58573;28.942;-13.688;2023-05-28T09:59:39;7;5;
70922;PMS5003;58573;28.942;-13.688;2023-05-28T10:02:08;5;5;
70922;PMS5003;58573;28.942;-13.688;2023-05-28T10:04:32;4;4;
70922;PMS5003;58573;28.942;-13.688;2023-05-28T10:06:55;4;4;
70922;PMS5003;58573;28.942;-13.688;2023-05-28T10:09:20;3;3;
70922;PMS5003;58573;28.942;-13.688;2023-05-28T10:11:48;4;4;
70922;PMS5003;58573;28.942;-13.688;2023-05-28T10:14:11;3;3;
70922;PMS5003;58573;28.942;-13.688;2023-05-28T10:16:37;3;3;
70922;PMS5003;58573;28.942;-13.688;2023-05-28T10:19:02;2;1;
70922;PMS5003;58573;28.942;-13.688;2023-05-28T10:21:27;3;3;
70922;PMS5003;58573;28.942;-13.688;2023-05-28T10:23:53;4;3;
70922;PMS5003;58573;28.942;-13.688;2023-05-28T10:26:18;4;3;
70922;PMS5003;58573;28.942;-13.688;2023-05-28T10:28:43;3;3;
70922;PMS5003;58573;28.942;-13.688;2023-05-28T10:31:08;3;3;
70922;PMS5003;58573;28.942;-13.688;2023-05-28T10:33:37;2;2;
70922;PMS5003;58573;28.942;-13.688;2023-05-28T10:35:59;4;3;
70922;PMS5003;58573;28.942;-13.688;2023-05-28T10:38:24;2;2;
70922;PMS5003;58573;28.942;-13.688;2023-05-28T10:40:49;4;4;
70922;PMS5003;58573;28.942;-13.688;2023-05-28T10:45:40;3;2;
70922;PMS5003;58573;28.942;-13.688;2023-05-28T10:48:05;2;2;
70922;PMS5003;58573;28.942;-13.688;2023-05-28T10:50:30;2;2;
70922;PMS5003;58573;28.942;-13.688;2023-05-28T10:53:04;4;3;
70922;PMS5003;58573;28.942;-13.688;2023-05-28T10:55:21;3;3;
70922;PMS5003;58573;28.942;-13.688;2023-05-28T10:57:46;3;3;
70922;PMS5003;58573;28.942;-13.688;2023-05-28T11:00:12;3;3;
70922;PMS5003;58573;28.942;-13.688;2023-05-28T11:02:38;2;2;
70922;PMS5003;58573;28.942;-13.688;2023-05-28T11:05:02;2;2;
70922;PMS5003;58573;28.942;-13.688;2023-05-28T11:07:28;4;3;
70922;PMS5003;58573;28.942;-13.688;2023-05-28T11:09:52;4;4;
70922;PMS5003;58573;28.942;-13.688;2023-05-28T11:12:17;2;2;
70922;PMS5003;58573;28.942;-13.688;2023-05-28T11:14:42;4;4;
70922;PMS5003;58573;28.942;-13.688;2023-05-28T11:17:09;2;1;
70922;PMS5003;58573;28.942;-13.688;2023-05-28T11:21:58;2;2;
70922;PMS5003;58573;28.942;-13.688;2023-05-28T11:24:24;4;3;
70922;PMS5003;58573;28.942;-13.688;2023-05-28T11:26:51;3;2;
70922;PMS5003;58573;28.942;-13.688;2023-05-28T11:29:14;3;2;
70922;PMS5003;58573;28.942;-13.688;2023-05-28T11:31:39;4;4;
70922;PMS5003;58573;28.942;-13.688;2023-05-28T11:34:05;4;4;
70922;PMS5003;58573;28.942;-13.688;2023-05-28T11:36:31;5;4;
70922;PMS5003;58573;28.942;-13.688;2023-05-28T11:39:00;2;2;
70922;PMS5003;58573;28.942;-13.688;2023-05-28T11:41:23;2;2;
70922;PMS5003;58573;28.942;-13.688;2023-05-28T11:43:45;3;3;
70922;PMS5003;58573;28.942;-13.688;2023-05-28T11:46:11;3;3;
70922;PMS5003;58573;28.942;-13.688;2023-05-28T11:48:36;3;3;
70922;PMS5003;58573;28.942;-13.688;2023-05-28T11:51:01;3;3;
70922;PMS5003;58573;28.942;-13.688;2023-05-28T11:55:51;3;3;
70922;PMS5003;58573;28.942;-13.688;2023-05-28T11:58:17;3;2;
70922;PMS5003;58573;28.942;-13.688;2023-05-28T12:00:42;8;8;
70922;PMS5003;58573;28.942;-13.688;2023-05-28T12:03:09;3;3;
70922;PMS5003;58573;28.942;-13.688;2023-05-28T12:05:36;5;5;
70922;PMS5003;58573;28.942;-13.688;2023-05-28T12:07:58;2;2;
70922;PMS5003;58573;28.942;-13.688;2023-05-28T12:10:26;5;4;
70922;PMS5003;58573;28.942;-13.688;2023-05-28T12:12:50;2;2;
70922;PMS5003;58573;28.942;-13.688;2023-05-28T12:15:14;4;4;
70922;PMS5003;58573;28.942;-13.688;2023-05-28T12:17:39;4;3;
70922;PMS5003;58573;28.942;-13.688;2023-05-28T12:20:04;3;3;
70922;PMS5003;58573;28.942;-13.688;2023-05-28T12:22:29;4;4;
70922;PMS5003;58573;28.942;-13.688;2023-05-28T12:24:54;2;2;
70922;PMS5003;58573;28.942;-13.688;2023-05-28T12:27:19;6;4;
70922;PMS5003;58573;28.942;-13.688;2023-05-28T12:29:44;4;4;
70922;PMS5003;58573;28.942;-13.688;2023-05-28T12:32:10;4;2;
70922;PMS5003;58573;28.942;-13.688;2023-05-28T12:34:35;4;3;
70922;PMS5003;58573;28.942;-13.688;2023-05-28T12:37:00;3;3;
70922;PMS5003;58573;28.942;-13.688;2023-05-28T12:39:25;2;2;
70922;PMS5003;58573;28.942;-13.688;2023-05-28T12:41:50;3;3;
70922;PMS5003;58573;28.942;-13.688;2023-05-28T12:44:16;3;3;
70922;PMS5003;58573;28.942;-13.688;2023-05-28T12:46:41;4;4;
70922;PMS5003;58573;28.942;-13.688;2023-05-28T12:49:06;5;4;
70922;PMS5003;58573;28.942;-13.688;2023-05-28T12:51:31;5;5;
70922;PMS5003;58573;28.942;-13.688;2023-05-28T12:53:57;3;3;
70922;PMS5003;58573;28.942;-13.688;2023-05-28T12:56:22;4;4;
70922;PMS5003;58573;28.942;-13.688;2023-05-28T12:58:47;4;4;
70922;PMS5003;58573;28.942;-13.688;2023-05-28T13:01:12;3;3;
70922;PMS5003;58573;28.942;-13.688;2023-05-28T13:03:38;4;4;
70922;PMS5003;58573;28.942;-13.688;2023-05-28T13:06:03;5;4;
70922;PMS5003;58573;28.942;-13.688;2023-05-28T13:08:28;5;3;
70922;PMS5003;58573;28.942;-13.688;2023-05-28T13:10:53;5;4;
70922;PMS5003;58573;28.942;-13.688;2023-05-28T13:13:19;3;3;
70922;PMS5003;58573;28.942;-13.688;2023-05-28T13:15:44;2;2;
70922;PMS5003;58573;28.942;-13.688;2023-05-28T13:18:09;3;3;
70922;PMS5003;58573;28.942;-13.688;2023-05-28T13:20:34;3;3;
70922;PMS5003;58573;28.942;-13.688;2023-05-28T13:22:59;3;3;
70922;PMS5003;58573;28.942;-13.688;2023-05-28T13:25:25;2;2;
70922;PMS5003;58573;28.942;-13.688;2023-05-28T13:27:50;3;3;
70922;PMS5003;58573;28.942;-13.688;2023-05-28T13:30:15;3;3;
70922;PMS5003;58573;28.942;-13.688;2023-05-28T13:32:40;6;4;
70922;PMS5003;58573;28.942;-13.688;2023-05-28T13:35:06;4;4;
70922;PMS5003;58573;28.942;-13.688;2023-05-28T13:37:31;4;4;
70922;PMS5003;58573;28.942;-13.688;2023-05-28T13:39:56;5;5;
70922;PMS5003;58573;28.942;-13.688;2023-05-28T13:42:21;5;4;
70922;PMS5003;58573;28.942;-13.688;2023-05-28T13:44:47;3;2;
70922;PMS5003;58573;28.942;-13.688;2023-05-28T13:47:12;4;4;
70922;PMS5003;58573;28.942;-13.688;2023-05-28T13:49:37;3;3;
70922;PMS5003;58573;28.942;-13.688;2023-05-28T13:52:02;4;3;
70922;PMS5003;58573;28.942;-13.688;2023-05-28T13:54:27;2;2;
70922;PMS5003;58573;28.942;-13.688;2023-05-28T13:56:52;3;3;
70922;PMS5003;58573;28.942;-13.688;2023-05-28T13:59:18;3;3;
70922;PMS5003;58573;28.942;-13.688;2023-05-28T14:01:43;2;2;
70922;PMS5003;58573;28.942;-13.688;2023-05-28T14:04:08;5;3;
70922;PMS5003;58573;28.942;-13.688;2023-05-28T14:06:35;3;2;
70922;PMS5003;58573;28.942;-13.688;2023-05-28T14:08:59;7;7;
70922;PMS5003;58573;28.942;-13.688;2023-05-28T14:11:25;4;4;
70922;PMS5003;58573;28.942;-13.688;2023-05-28T14:13:50;3;2;
70922;PMS5003;58573;28.942;-13.688;2023-05-28T14:16:15;3;3;
70922;PMS5003;58573;28.942;-13.688;2023-05-28T14:18:40;4;3;
70922;PMS5003;58573;28.942;-13.688;2023-05-28T14:21:05;3;3;
70922;PMS5003;58573;28.942;-13.688;2023-05-28T14:23:31;5;4;
70922;PMS5003;58573;28.942;-13.688;2023-05-28T14:25:56;3;2;
70922;PMS5003;58573;28.942;-13.688;2023-05-28T14:28:21;4;4;
70922;PMS5003;58573;28.942;-13.688;2023-05-28T14:30:46;3;2;
70922;PMS5003;58573;28.942;-13.688;2023-05-28T14:33:11;4;4;
70922;PMS5003;58573;28.942;-13.688;2023-05-28T14:35:37;2;2;
70922;PMS5003;58573;28.942;-13.688;2023-05-28T14:38:02;3;3;
70922;PMS5003;58573;28.942;-13.688;2023-05-28T14:40:27;4;3;
70922;PMS5003;58573;28.942;-13.688;2023-05-28T14:42:52;3;3;
70922;PMS5003;58573;28.942;-13.688;2023-05-28T14:45:18;4;3;
70922;PMS5003;58573;28.942;-13.688;2023-05-28T14:47:43;3;3;
70922;PMS5003;58573;28.942;-13.688;2023-05-28T14:50:08;3;3;
70922;PMS5003;58573;28.942;-13.688;2023-05-28T14:52:33;4;4;
70922;PMS5003;58573;28.942;-13.688;2023-05-28T14:54:58;2;2;
70922;PMS5003;58573;28.942;-13.688;2023-05-28T14:57:24;2;2;
70922;PMS5003;58573;28.942;-13.688;2023-05-28T14:59:49;6;6;
70922;PMS5003;58573;28.942;-13.688;2023-05-28T15:02:14;2;2;
70922;PMS5003;58573;28.942;-13.688;2023-05-28T15:04:40;4;4;
70922;PMS5003;58573;28.942;-13.688;2023-05-28T15:07:04;4;3;
70922;PMS5003;58573;28.942;-13.688;2023-05-28T15:09:29;3;3;
70922;PMS5003;58573;28.942;-13.688;2023-05-28T15:11:55;4;3;
70922;PMS5003;58573;28.942;-13.688;2023-05-28T15:14:20;4;4;
70922;PMS5003;58573;28.942;-13.688;2023-05-28T15:16:45;3;3;
70922;PMS5003;58573;28.942;-13.688;2023-05-28T15:19:11;2;2;
70922;PMS5003;58573;28.942;-13.688;2023-05-28T15:21:35;3;3;
70922;PMS5003;58573;28.942;-13.688;2023-05-28T15:24:01;2;2;
70922;PMS5003;58573;28.942;-13.688;2023-05-28T15:26:26;4;3;
70922;PMS5003;58573;28.942;-13.688;2023-05-28T15:28:51;7;4;
70922;PMS5003;58573;28.942;-13.688;2023-05-28T15:31:16;3;3;
70922;PMS5003;58573;28.942;-13.688;2023-05-28T15:33:41;2;2;
70922;PMS5003;58573;28.942;-13.688;2023-05-28T15:36:07;2;2;
70922;PMS5003;58573;28.942;-13.688;2023-05-28T15:38:32;2;1;
70922;PMS5003;58573;28.942;-13.688;2023-05-28T15:40:57;2;2;
70922;PMS5003;58573;28.942;-13.688;2023-05-28T15:43:23;3;3;
70922;PMS5003;58573;28.942;-13.688;2023-05-28T15:45:48;4;4;
70922;PMS5003;58573;28.942;-13.688;2023-05-28T15:48:13;6;5;
70922;PMS5003;58573;28.942;-13.688;2023-05-28T15:50:38;4;4;
70922;PMS5003;58573;28.942;-13.688;2023-05-28T15:53:03;7;4;
70922;PMS5003;58573;28.942;-13.688;2023-05-28T15:55:29;3;2;
70922;PMS5003;58573;28.942;-13.688;2023-05-28T15:57:54;5;4;
70922;PMS5003;58573;28.942;-13.688;2023-05-28T16:00:19;4;4;
70922;PMS5003;58573;28.942;-13.688;2023-05-28T16:02:44;3;3;
70922;PMS5003;58573;28.942;-13.688;2023-05-28T16:05:10;3;3;
70922;PMS5003;58573;28.942;-13.688;2023-05-28T16:07:35;4;3;
70922;PMS5003;58573;28.942;-13.688;2023-05-28T16:10:00;3;3;
70922;PMS5003;58573;28.942;-13.688;2023-05-28T16:12:26;4;3;